ADDS METAR Data INFO
IDs: Format: Raw Decoded Include TAF

Data at: 0920 UTC 13 Dec 2017

K4I3 130915Z AUTO 25004KT 5SM -SN SCT011 SCT023 OVC039 M08/M10 A2987 RMK AO2
K4I3 130855Z AUTO 27004KT 10SM -SN OVC039 M08/M11 A2987 RMK AO2
K4I3 130835Z AUTO 27007KT 10SM OVC041 M08/M11 A2987 RMK AO2
K4I3 130815Z AUTO 28007KT 10SM BKN038 OVC043 M08/M12 A2988 RMK AO2
K4I3 130755Z AUTO 27007KT 10SM SCT010 BKN039 OVC046 M08/M12 A2988 RMK AO2
K4I3 130735Z AUTO 27007KT 10SM SCT038 OVC046 M08/M12 A2988 RMK AO2
K4I3 130715Z AUTO 28009KT 10SM OVC046 M08/M13 A2988 RMK AO2
K4I3 130655Z AUTO 28011KT 10SM OVC048 M08/M13 A2987 RMK AO2
K4I3 130635Z AUTO 27009KT 10SM OVC050 M08/M13 A2987 RMK AO2
K4I3 130615Z AUTO 29010KT 10SM OVC050 M08/M13 A2987 RMK AO2
K4I3 130555Z AUTO 29010KT 10SM OVC050 M08/M13 A2987 RMK AO2
K4I3 130535Z AUTO 30015G20KT 10SM OVC050 M08/M13 A2987 RMK AO2
K4I3 130515Z AUTO 29013KT 10SM OVC050 M08/M13 A2988 RMK AO2
K4I3 130455Z AUTO 29015G22KT 10SM OVC050 M08/M14 A2988 RMK AO2
K4I3 130435Z AUTO 29016G21KT 10SM OVC050 M08/M14 A2988 RMK AO2
K4I3 130415Z AUTO 29009G16KT 10SM SCT044 OVC050 M08/M14 A2988 RMK AO2
K4I3 130355Z AUTO 29011G15KT 10SM SCT024 BKN038 OVC048 M07/M13 A2988 RMK AO2
K4I3 130335Z AUTO 31010G15KT 10SM SCT011 SCT022 BKN035 M07/M13 A2989 RMK AO2
K4I3 130315Z AUTO 31013G20KT 10SM SCT037 BKN046 OVC050 M07/M13 A2989 RMK AO2
K4I3 130255Z AUTO 30009G16KT 10SM SCT038 SCT044 BKN050 M08/M13 A2988 RMK AO2
K4I3 130235Z AUTO 28012G20KT 10SM OVC050 M08/M13 A2988 RMK AO2
K4I3 130215Z AUTO 29010KT 10SM SCT009 SCT015 BKN060 M08/M12 A2989 RMK AO2
K4I3 130155Z AUTO 29016G22KT 10SM SCT010 SCT014 BKN022 M07/M12 A2989 RMK AO2
K4I3 130135Z AUTO 29013G18KT 10SM SCT009 BKN014 BKN027 M08/M12 A2989 RMK AO2
K4I3 130115Z AUTO 29018G21KT 7SM -SN SCT009 SCT015 BKN020 M07/M12 A2989 RMK AO2
K4I3 130055Z AUTO 29009KT 10SM SCT012 SCT020 BKN055 M07/M12 A2989 RMK AO2
K4I3 130035Z AUTO 31015G19KT 10SM SCT011 SCT019 BKN045 M07/M13 A2989 RMK AO2
K4I3 130015Z AUTO 30011G17KT 10SM SCT018 SCT045 OVC060 M07/M13 A2989 RMK AO2
K4I3 122355Z AUTO 29011KT 10SM SCT048 BKN060 M07/M13 A2988 RMK AO2
K4I3 122335Z AUTO 31011G20KT 10SM SCT042 SCT050 BKN060 M07/M13 A2988 RMK AO2
K4I3 122315Z AUTO 32010G16KT 10SM BKN042 BKN048 OVC060 M07/M13 A2988 RMK AO2
K4I3 122255Z AUTO 30012G15KT 10SM SCT046 BKN060 M07/M13 A2987 RMK AO2
K4I3 122235Z AUTO 30009G16KT 10SM BKN060 M07/M13 A2986 RMK AO2
K4I3 122215Z AUTO 31010G19KT 10SM BKN060 M07/M13 A2986 RMK AO2
K4I3 122155Z AUTO 30019G26KT 10SM SCT050 SCT060 M06/M13 A2985 RMK AO2
K4I3 122135Z AUTO 30018G23KT 10SM SCT045 BKN060 M06/M13 A2984 RMK AO2
K4I3 122115Z AUTO 30011G20KT 10SM SCT014 SCT023 BKN045 M06/M13 A2984 RMK AO2
K4I3 122055Z AUTO 31014G23KT 10SM SCT014 SCT023 SCT034 M06/M13 A2984 RMK AO2
K4I3 122035Z AUTO 30013G24KT 10SM SCT060 M06/M13 A2983 RMK AO2
K4I3 122015Z AUTO 31017G27KT 10SM SCT008 SCT018 SCT045 M06/M13 A2983 RMK AO2
K4I3 121956Z AUTO 31010G21KT 10SM SCT045 SCT050 M06/M12 A2983 RMK AO2
K4I3 121935Z AUTO 31016G23KT 10SM SCT043 SCT049 M05/M13 A2983 RMK AO2
K4I3 121915Z AUTO 31016G27KT 10SM SCT041 SCT047 M05/M13 A2983 RMK AO2
K4I3 121856Z AUTO 32018G28KT 10SM SCT041 SCT047 M05/M13 A2982 RMK AO2
K4I3 121835Z AUTO 29020G28KT 10SM SCT007 SCT013 BKN041 M05/M12 A2982 RMK AO2
K4I3 121815Z AUTO 30023G32KT 10SM SCT044 SCT049 M05/M12 A2982 RMK AO2
K4I3 121755Z AUTO 31016G27KT 10SM SCT033 BKN042 M05/M12 A2982 RMK AO2
K4I3 121735Z AUTO 29018G24KT 10SM BKN031 BKN042 M04/M10 A2982 RMK AO2
K4I3 121715Z AUTO 31013G21KT 10SM SCT031 SCT042 M05/M11 A2983 RMK AO2
K4I3 121655Z AUTO 30015G24KT 10SM SCT013 SCT038 BKN044 M05/M11 A2983 RMK AO2
K4I3 121635Z AUTO 31016G25KT 10SM BKN040 BKN046 M05/M11 A2983 RMK AO2
K4I3 121615Z AUTO 31014G29KT 10SM SCT029 SCT036 SCT046 M04/M11 A2984 RMK AO2
K4I3 121555Z AUTO 29020G29KT 10SM SCT029 SCT034 BKN044 M04/M10 A2983 RMK AO2
K4I3 121535Z AUTO 31016G25KT 10SM SCT027 SCT036 BKN042 M04/M09 A2983 RMK AO2
K4I3 121515Z AUTO 30022G29KT 10SM SCT029 SCT036 M04/M09 A2982 RMK AO2
K4I3 121455Z AUTO 31016G25KT 10SM SCT030 SCT034 M04/M09 A2981 RMK AO2
K4I3 121435Z AUTO 31019G28KT 10SM SCT014 SCT028 SCT033 M04/M08 A2980 RMK AO2
K4I3 121415Z AUTO 31013G22KT 7SM -SN SCT006 BKN015 OVC047 M04/M07 A2980 RMK AO2
K4I3 121355Z AUTO 32011G20KT 1 3/4SM -SN SCT007 OVC015 M03/M05 A2979 RMK AO2
K4I3 121335Z AUTO 31009G15KT 5SM -SN BKN007 BKN015 BKN022 M03/M04 A2978 RMK AO2
K4I3 121315Z AUTO 32013G20KT 1 3/4SM -SN OVC007 M03/M05 A2977 RMK AO2
K4I3 121255Z AUTO 32021G26KT 1 3/4SM -SN BKN005 OVC010 M02/M03 A2976 RMK AO2
K4I3 121235Z AUTO 32013G17KT 7SM -SN SCT010 SCT017 BKN028 M02/M03 A2975 RMK AO2
K4I3 121215Z AUTO 32011G17KT 10SM SCT013 SCT028 BKN035 M01/M03 A2974 RMK AO2
K4I3 121155Z AUTO 31016G21KT 7SM -SN SCT006 BKN013 BKN035 M01/M02 A2973 RMK AO2
K4I3 121135Z AUTO 30016G22KT 7SM -SN BKN013 BKN031 BKN040 M01/M01 A2971 RMK AO2
K4I3 121115Z AUTO 30017G24KT 5SM -SN OVC011 M00/M01 A2970 RMK AO2
K4I3 121055Z AUTO 30014G25KT 7SM -SN OVC011 M00/M01 A2970 RMK AO2
K4I3 121035Z AUTO 29013KT 3SM -SN BKN008 OVC013 M00/M01 A2969 RMK AO2
K4I3 121015Z AUTO 29015G19KT 3SM UP OVC006 M00/M01 A2968 RMK AO2
K4I3 120955Z AUTO 30017G22KT 4SM BR OVC008 M00/M01 A2968 RMK AO2
K4I3 120935Z AUTO 30014G23KT 7SM OVC011 M00/M01 A2968 RMK AO2
K4I3 120915Z AUTO 29011KT 7SM BKN011 OVC029 00/M01 A2966 RMK AO2
K4I3 120855Z AUTO 29017G23KT 7SM OVC013 00/M01 A2966 RMK AO2
K4I3 120835Z AUTO 29017G26KT 7SM BKN015 BKN046 00/M01 A2966 RMK AO2
K4I3 120815Z AUTO 30014G22KT 7SM -SN SCT009 BKN019 BKN046 01/M00 A2965 RMK AO2
K4I3 120755Z AUTO 28010KT 10SM SCT009 BKN019 BKN050 01/00 A2964 RMK AO2
K4I3 120735Z AUTO 28012G16KT 5SM -SN BKN009 BKN014 OVC050 01/00 A2964 RMK AO2
K4I3 120715Z AUTO 27014G19KT 10SM SCT008 SCT014 BKN050 02/00 A2962 RMK AO2
K4I3 120655Z AUTO 26009G17KT 5SM -SN BKN008 OVC014 01/00 A2962 RMK AO2
K4I3 120636Z AUTO 26009G17KT 3SM -SN BKN008 OVC017 01/00 A2962 RMK AO2
K4I3 120615Z AUTO 27015G21KT 10SM SCT009 SCT015 BKN020 03/M01 A2960 RMK AO2
K4I3 120555Z AUTO 25011G14KT 10SM SCT080 03/M01 A2959 RMK AO2
K4I3 120536Z AUTO 25005KT 10SM SCT012 SCT019 01/M02 A2960 RMK AO2
K4I3 120515Z AUTO 22003KT 10SM SCT075 01/M03 A2960 RMK AO2
K4I3 120455Z AUTO 19004KT 10SM SCT075 SCT085 00/M03 A2960 RMK AO2
K4I3 120435Z AUTO 16004KT 10SM SCT075 SCT085 00/M03 A2960 RMK AO2
K4I3 120415Z AUTO 16003KT 10SM CLR M00/M03 A2962 RMK AO2
K4I3 120355Z AUTO 00000KT 10SM SCT070 M00/M03 A2963 RMK AO2
K4I3 120335Z AUTO 00000KT 10SM BKN070 M00/M03 A2964 RMK AO2
K4I3 120315Z AUTO 15003KT 10SM BKN070 M00/M03 A2965 RMK AO2
K4I3 120255Z AUTO 14004KT 10SM SCT070 M01/M04 A2966 RMK AO2
K4I3 120235Z AUTO 14003KT 10SM CLR M01/M04 A2968 RMK AO2
K4I3 120215Z AUTO 13003KT 10SM CLR M01/M04 A2968 RMK AO2
K4I3 120155Z AUTO 12004KT 10SM CLR M00/M04 A2970 RMK AO2
K4I3 120135Z AUTO 13003KT 10SM CLR 00/M04 A2972 RMK AO2
K4I3 120115Z AUTO 00000KT 10SM CLR 00/M03 A2973 RMK AO2
K4I3 120055Z AUTO 14004KT 10SM CLR 00/M03 A2974 RMK AO2
K4I3 120035Z AUTO 15006KT 10SM CLR 00/M03 A2974 RMK AO2
K4I3 120015Z AUTO 15006KT 10SM CLR 00/M03 A2975 RMK AO2
K4I3 112355Z AUTO 14006KT 10SM CLR M01/M04 A2976 RMK AO2
K4I3 112335Z AUTO 15004KT 10SM CLR M01/M04 A2978 RMK AO2
K4I3 112315Z AUTO 14004KT 10SM CLR M00/M04 A2978 RMK AO2
K4I3 112255Z AUTO 14005KT 10SM CLR 00/M04 A2979 RMK AO2
K4I3 112235Z AUTO 14004KT 10SM CLR 00/M04 A2980 RMK AO2
K4I3 112215Z AUTO 15006KT 10SM CLR 01/M03 A2981 RMK AO2
K4I3 112155Z AUTO 15005KT 10SM SCT050 01/M03 A2983 RMK AO2
K4I3 112135Z AUTO 15007KT 10SM BKN050 01/M04 A2983 RMK AO2